createdAt,value
2023-03-04T00:03:44.858Z,5.36
2023-03-04T00:08:46.409Z,5.33
2023-03-04T00:13:47.908Z,5.33
2023-03-04T00:18:49.441Z,5.32
2023-03-04T00:23:51.337Z,5.37
2023-03-04T00:28:52.912Z,5.23
2023-03-04T00:33:54.445Z,5.23
2023-03-04T00:38:55.999Z,5.20
2023-03-04T00:43:57.493Z,5.20
2023-03-04T00:48:59.008Z,5.21
2023-03-04T00:54:01.126Z,5.24
2023-03-04T00:59:02.652Z,5.19
2023-03-04T01:04:04.391Z,5.21
2023-03-04T01:09:05.865Z,5.19
2023-03-04T01:14:07.406Z,5.14
2023-03-04T01:19:08.999Z,5.09
2023-03-04T01:24:10.894Z,5.13
2023-03-04T01:29:12.594Z,5.03
2023-03-04T01:34:14.399Z,5.03
2023-03-04T01:39:15.940Z,5.06
2023-03-04T01:44:17.663Z,5.10
2023-03-04T01:49:19.884Z,5.17
2023-03-04T01:54:23.001Z,5.20
2023-03-04T01:59:26.477Z,5.19
2023-03-04T02:04:31.179Z,5.18
2023-03-04T02:09:34.124Z,5.16
2023-03-04T02:14:35.728Z,5.11
2023-03-04T02:19:50.966Z,5.04
2023-03-04T02:25:03.438Z,5.00
2023-03-04T02:30:05.538Z,5.00
2023-03-04T02:35:14.092Z,4.99
2023-03-04T02:40:24.685Z,4.99
2023-03-04T02:45:35.114Z,5.05
2023-03-04T02:50:42.501Z,5.11
2023-03-04T02:55:44.720Z,5.06
2023-03-04T03:00:46.251Z,5.06
2023-03-04T03:05:47.781Z,5.04
2023-03-04T03:10:49.264Z,4.92
2023-03-04T03:15:50.865Z,4.89
2023-03-04T03:20:52.433Z,4.88
2023-03-04T03:25:53.976Z,4.90
2023-03-04T03:30:55.581Z,4.98
2023-03-04T03:35:57.190Z,5.04
2023-03-04T03:40:59.881Z,5.09
2023-03-04T03:46:01.455Z,5.11
2023-03-04T03:51:03.171Z,5.09
2023-03-04T03:56:05.160Z,5.07
2023-03-04T04:01:06.677Z,5.04
2023-03-04T04:06:08.213Z,5.00
2023-03-04T04:11:11.200Z,5.06
2023-03-04T04:16:12.840Z,5.03
2023-03-04T04:21:15.087Z,5.08
2023-03-04T04:26:16.755Z,5.15
2023-03-04T04:31:18.276Z,5.21
2023-03-04T04:36:20.164Z,5.22
2023-03-04T04:41:24.352Z,5.22
2023-03-04T04:46:26.860Z,5.22
2023-03-04T04:51:29.194Z,5.18
2023-03-04T04:56:31.124Z,5.16
2023-03-04T05:01:32.872Z,5.08
2023-03-04T05:06:34.468Z,5.11
2023-03-04T05:11:35.939Z,5.07
2023-03-04T05:16:37.486Z,4.99
2023-03-04T05:21:39.236Z,5.01
2023-03-04T05:26:40.837Z,5.02
2023-03-04T05:31:42.358Z,5.05
2023-03-04T05:36:43.964Z,5.01
2023-03-04T05:41:45.514Z,4.79
2023-03-04T05:46:47.051Z,4.60
2023-03-04T05:51:48.567Z,4.50
2023-03-04T05:56:50.095Z,4.47
2023-03-04T06:01:51.616Z,4.40
2023-03-04T06:06:53.194Z,4.47
2023-03-04T06:11:54.655Z,4.52
2023-03-04T06:16:56.164Z,4.63
2023-03-04T06:21:57.723Z,4.62
2023-03-04T06:26:59.399Z,4.60
2023-03-04T06:32:01.021Z,4.61
2023-03-04T06:37:02.595Z,4.59
2023-03-04T06:42:04.366Z,4.63
2023-03-04T06:47:06.107Z,4.64
2023-03-04T06:52:07.644Z,4.72
2023-03-04T06:57:09.159Z,4.75
2023-03-04T07:02:12.511Z,4.78
2023-03-04T07:07:14.065Z,4.89
2023-03-04T07:12:15.577Z,4.92
2023-03-04T07:17:17.079Z,4.99
2023-03-04T07:22:18.560Z,4.97
2023-03-04T07:27:20.024Z,4.87
2023-03-04T07:32:21.731Z,4.89
2023-03-04T07:37:23.316Z,5.03
2023-03-04T07:42:24.885Z,5.13
2023-03-04T07:47:26.437Z,5.32
2023-03-04T07:52:27.977Z,5.49
2023-03-04T07:57:29.497Z,5.56
2023-03-04T08:02:31.076Z,5.63
2023-03-04T08:07:33.929Z,5.74
2023-03-04T08:12:36.303Z,5.83
2023-03-04T08:17:38.110Z,5.91
2023-03-04T08:22:39.689Z,6.01
2023-03-04T08:27:41.159Z,6.12
2023-03-04T08:32:42.848Z,6.14
2023-03-04T08:37:46.041Z,6.17
2023-03-04T08:42:47.624Z,6.03
2023-03-04T08:47:50.635Z,6.00
2023-03-04T08:52:52.135Z,6.06
2023-03-04T08:57:53.651Z,6.09
2023-03-04T09:02:55.939Z,6.00
2023-03-04T09:07:58.272Z,6.09
2023-03-04T09:13:01.061Z,6.34
2023-03-04T09:18:04.894Z,6.63
2023-03-04T09:23:06.640Z,6.64
2023-03-04T09:28:08.287Z,6.73
2023-03-04T09:33:10.194Z,6.73
2023-03-04T09:38:11.855Z,6.60
2023-03-04T09:43:34.019Z,6.35
2023-03-04T09:49:07.414Z,5.85
2023-03-04T09:54:15.157Z,5.68
2023-03-04T09:59:41.265Z,5.84
2023-03-04T10:04:51.583Z,6.11
2023-03-04T10:10:22.133Z,6.47
2023-03-04T10:15:48.671Z,6.75
2023-03-04T10:20:53.726Z,6.87
2023-03-04T10:25:56.908Z,7.12
2023-03-04T10:31:13.533Z,7.45
2023-03-04T10:36:34.492Z,7.69
2023-03-04T10:41:36.255Z,7.65
2023-03-04T10:46:39.611Z,7.43
2023-03-04T10:51:50.199Z,7.20
2023-03-04T10:57:15.088Z,7.17
2023-03-04T11:02:23.311Z,7.22
2023-03-04T11:07:26.608Z,7.57
2023-03-04T11:12:34.530Z,7.73
2023-03-04T11:17:55.891Z,7.59
2023-03-04T11:23:04.602Z,7.32
2023-03-04T11:28:23.101Z,6.71
2023-03-04T11:33:45.421Z,6.51
2023-03-04T11:38:52.013Z,6.28
2023-03-04T11:43:53.731Z,6.22
2023-03-04T11:49:18.300Z,6.47
2023-03-04T11:54:35.379Z,6.78
2023-03-04T11:59:57.220Z,7.03
2023-03-04T12:05:10.945Z,7.14
2023-03-04T12:10:24.408Z,7.22
2023-03-04T12:15:49.885Z,7.41
2023-03-04T12:21:04.940Z,7.00
2023-03-04T12:26:42.767Z,7.02
2023-03-04T12:31:48.731Z,7.16
2023-03-04T12:36:53.112Z,7.31
2023-03-04T12:42:21.384Z,7.32
2023-03-04T12:47:33.444Z,7.22
2023-03-04T12:52:53.543Z,7.33
2023-03-04T12:57:57.109Z,7.28
2023-03-04T13:03:15.749Z,7.30
2023-03-04T13:08:52.284Z,7.38
2023-03-04T13:14:05.856Z,7.11
2023-03-04T13:19:45.226Z,6.94
2023-03-04T13:24:52.340Z,6.87
2023-03-04T13:29:54.380Z,6.91
2023-03-04T13:34:56.098Z,6.63
2023-03-04T13:40:27.389Z,6.55
2023-03-04T13:45:35.753Z,6.58
2023-03-04T13:50:49.334Z,6.76
2023-03-04T13:56:20.554Z,6.97
2023-03-04T14:01:26.509Z,6.77
2023-03-04T14:06:30.910Z,6.88
2023-03-04T14:11:42.803Z,7.15
2023-03-04T14:16:50.531Z,7.05
2023-03-04T14:21:52.101Z,7.07
2023-03-04T14:27:13.990Z,6.88
2023-03-04T14:32:15.552Z,6.71
2023-03-04T14:37:22.709Z,6.69
2023-03-04T14:42:32.094Z,6.76
2023-03-04T14:47:39.091Z,6.81
2023-03-04T14:52:43.794Z,6.75
2023-03-04T14:57:58.398Z,6.55
2023-03-04T15:03:19.848Z,6.54
2023-03-04T15:08:31.973Z,6.65
2023-03-04T15:13:41.959Z,6.77
2023-03-04T15:19:03.498Z,6.53
2023-03-04T15:24:06.724Z,6.37
2023-03-04T15:29:17.617Z,6.38
2023-03-04T15:34:20.660Z,6.25
2023-03-04T15:39:23.376Z,6.30
2023-03-04T15:44:24.908Z,6.10
2023-03-04T15:49:26.468Z,6.14
2023-03-04T15:54:28.840Z,6.10
2023-03-04T15:59:30.421Z,5.94
2023-03-04T16:04:31.930Z,5.75
2023-03-04T16:09:33.491Z,5.67
2023-03-04T16:14:35.047Z,5.62
2023-03-04T16:19:36.579Z,5.46
2023-03-04T16:24:38.211Z,5.46
2023-03-04T16:29:39.785Z,5.32
2023-03-04T16:34:41.266Z,5.20
2023-03-04T16:39:46.150Z,5.12
2023-03-04T16:44:49.311Z,5.08
2023-03-04T16:49:50.933Z,4.97
2023-03-04T16:54:52.574Z,5.11
2023-03-04T16:59:55.236Z,5.26
2023-03-04T17:04:58.224Z,5.24
2023-03-04T17:09:59.767Z,4.97
2023-03-04T17:15:04.105Z,4.67
2023-03-04T17:20:07.210Z,4.63
2023-03-04T17:25:09.568Z,4.59
2023-03-04T17:30:13.105Z,4.60
2023-03-04T17:35:14.598Z,4.55
2023-03-04T17:40:16.349Z,4.53
2023-03-04T17:45:17.949Z,4.50
2023-03-04T17:50:21.075Z,4.48
2023-03-04T17:55:29.306Z,4.36
2023-03-04T18:00:32.722Z,4.28
2023-03-04T18:05:34.295Z,4.27
2023-03-04T18:10:36.108Z,4.39
2023-03-04T18:15:37.631Z,4.24
2023-03-04T18:20:39.163Z,4.14
2023-03-04T18:25:40.703Z,4.12
2023-03-04T18:30:42.291Z,4.17
2023-03-04T18:35:43.867Z,4.05
2023-03-04T18:40:45.477Z,3.99
2023-03-04T18:45:48.189Z,4.01
2023-03-04T18:50:51.490Z,4.11
2023-03-04T18:56:00.194Z,4.07
2023-03-04T19:01:04.952Z,4.04
2023-03-04T19:06:06.854Z,3.98
2023-03-04T19:11:08.351Z,3.82
2023-03-04T19:16:09.962Z,3.86
2023-03-04T19:21:11.561Z,3.80
2023-03-04T19:26:13.911Z,3.69
2023-03-04T19:31:15.478Z,3.60
2023-03-04T19:36:17.106Z,3.55
2023-03-04T19:41:18.669Z,3.50
2023-03-04T19:46:20.555Z,3.52
2023-03-04T19:51:26.149Z,3.56
2023-03-04T19:56:28.075Z,3.49
2023-03-04T20:01:34.991Z,3.50
2023-03-04T20:06:39.063Z,3.51
2023-03-04T20:11:54.967Z,3.61
2023-03-04T20:17:01.468Z,3.43
2023-03-04T20:22:03.160Z,3.58
2023-03-04T20:27:04.649Z,3.62
2023-03-04T20:32:06.402Z,3.67
2023-03-04T20:37:07.972Z,3.69
2023-03-04T20:42:09.577Z,3.55
2023-03-04T20:47:11.276Z,3.42
2023-03-04T20:52:12.809Z,3.43
2023-03-04T20:57:14.391Z,3.42
2023-03-04T21:02:20.625Z,3.41
2023-03-04T21:07:22.335Z,3.34
2023-03-04T21:12:23.958Z,3.22
2023-03-04T21:17:25.502Z,3.09
2023-03-04T21:22:26.998Z,2.95
2023-03-04T21:27:28.577Z,2.91
2023-03-04T21:32:30.121Z,2.88
2023-03-04T21:37:31.676Z,2.86
2023-03-04T21:42:33.195Z,2.75
2023-03-04T21:47:34.698Z,2.74
2023-03-04T21:52:36.236Z,2.75
2023-03-04T21:57:37.727Z,2.93
2023-03-04T22:02:39.734Z,3.05
2023-03-04T22:07:41.290Z,3.09
2023-03-04T22:12:42.766Z,3.11
2023-03-04T22:17:45.670Z,3.10
2023-03-04T22:22:47.319Z,3.12
2023-03-04T22:27:48.819Z,3.16
2023-03-04T22:32:50.399Z,3.11
2023-03-04T22:37:52.127Z,3.12
2023-03-04T22:42:53.680Z,3.11
2023-03-04T22:47:55.235Z,3.13
2023-03-04T22:52:56.724Z,3.17
2023-03-04T22:57:58.219Z,3.16
2023-03-04T23:02:59.770Z,3.06
2023-03-04T23:08:01.317Z,3.05
2023-03-04T23:13:02.854Z,3.07
2023-03-04T23:18:04.369Z,3.08
2023-03-04T23:23:05.899Z,3.07
2023-03-04T23:28:07.468Z,3.08
2023-03-04T23:33:08.975Z,3.01
2023-03-04T23:38:10.803Z,2.99
2023-03-04T23:43:12.410Z,2.94
2023-03-04T23:48:13.912Z,2.88
2023-03-04T23:53:15.423Z,2.82
2023-03-04T23:58:16.950Z,2.75
